createdAt,value
2023-01-12T00:02:37.664Z,49.30
2023-01-12T00:05:30.656Z,48.10
2023-01-12T00:08:25.158Z,47.60
2023-01-12T00:11:19.574Z,47.90
2023-01-12T00:14:12.536Z,47.90
2023-01-12T00:17:06.444Z,47.30
2023-01-12T00:19:59.625Z,46.60
2023-01-12T00:22:52.758Z,47.30
2023-01-12T00:25:54.288Z,47.30
2023-01-12T00:28:48.155Z,47.20
2023-01-12T00:31:42.190Z,47.10
2023-01-12T00:34:35.892Z,46.90
2023-01-12T00:37:28.880Z,47.10
2023-01-12T00:40:21.994Z,46.90
2023-01-12T00:43:33.676Z,46.90
2023-01-12T00:46:31.482Z,46.00
2023-01-12T00:49:24.565Z,46.60
2023-01-12T00:52:30.037Z,46.80
2023-01-12T00:55:23.999Z,46.60
2023-01-12T00:58:17.964Z,46.70
2023-01-12T01:01:11.035Z,46.20
2023-01-12T01:04:05.108Z,46.60
2023-01-12T01:06:59.168Z,46.60
2023-01-12T01:09:53.200Z,46.50
2023-01-12T01:12:46.985Z,46.60
2023-01-12T01:15:41.290Z,46.70
2023-01-12T01:18:35.471Z,45.60
2023-01-12T01:21:28.671Z,46.50
2023-01-12T01:24:22.051Z,46.40
2023-01-12T01:27:14.648Z,46.30
2023-01-12T01:30:09.430Z,46.40
2023-01-12T01:33:04.166Z,46.30
2023-01-12T01:35:57.785Z,46.20
2023-01-12T01:38:51.797Z,46.20
2023-01-12T01:41:44.818Z,45.90
2023-01-12T01:44:53.765Z,46.00
2023-01-12T01:47:50.241Z,46.10
2023-01-12T01:50:51.544Z,46.00
2023-01-12T01:53:47.803Z,45.70
2023-01-12T01:56:40.924Z,45.50
2023-01-12T01:59:37.359Z,45.70
2023-01-12T02:02:31.011Z,46.00
2023-01-12T02:05:26.840Z,45.90
2023-01-12T02:08:26.204Z,45.80
2023-01-12T02:11:38.354Z,45.80
2023-01-12T02:14:49.916Z,45.80
2023-01-12T02:17:56.401Z,46.00
2023-01-12T02:21:05.268Z,46.00
2023-01-12T02:24:26.570Z,45.90
2023-01-12T02:27:32.591Z,45.80
2023-01-12T02:31:15.419Z,46.20
2023-01-12T02:34:20.854Z,46.10
2023-01-12T02:37:23.844Z,46.10
2023-01-12T02:40:24.482Z,46.10
2023-01-12T02:43:24.871Z,46.20
2023-01-12T02:46:22.851Z,46.10
2023-01-12T02:49:21.219Z,46.10
2023-01-12T02:52:17.747Z,46.20
2023-01-12T02:55:12.981Z,46.10
2023-01-12T02:58:10.880Z,45.60
2023-01-12T03:01:05.405Z,45.60
2023-01-12T03:04:03.685Z,46.00
2023-01-12T03:07:35.756Z,45.90
2023-01-12T03:10:47.510Z,46.10
2023-01-12T03:13:45.190Z,46.00
2023-01-12T03:16:40.413Z,46.00
2023-01-12T03:19:36.713Z,45.50
2023-01-12T03:22:33.309Z,45.90
2023-01-12T03:25:31.472Z,45.80
2023-01-12T03:28:28.293Z,45.80
2023-01-12T03:31:23.932Z,45.80
2023-01-12T03:34:16.798Z,45.70
2023-01-12T03:37:16.833Z,45.70
2023-01-12T03:40:14.155Z,45.70
2023-01-12T03:43:13.320Z,45.70
2023-01-12T03:46:14.192Z,45.60
2023-01-12T03:49:12.862Z,45.70
2023-01-12T03:52:08.509Z,45.50
2023-01-12T03:55:06.129Z,45.60
2023-01-12T03:57:59.793Z,45.60
2023-01-12T04:00:52.909Z,45.60
2023-01-12T04:03:46.381Z,45.60
2023-01-12T04:06:39.980Z,45.60
2023-01-12T04:09:32.771Z,45.50
2023-01-12T04:12:27.389Z,45.90
2023-01-12T04:15:20.692Z,45.70
2023-01-12T04:18:14.157Z,45.60
2023-01-12T04:21:27.188Z,45.60
2023-01-12T04:24:19.131Z,45.30
2023-01-12T04:27:11.855Z,45.50
2023-01-12T04:30:07.205Z,45.40
2023-01-12T04:33:01.139Z,45.60
2023-01-12T04:35:53.788Z,45.70
2023-01-12T04:38:47.285Z,45.40
2023-01-12T04:41:41.137Z,45.60
2023-01-12T04:44:34.893Z,45.60
2023-01-12T04:47:29.460Z,45.60
2023-01-12T04:50:22.873Z,45.60
2023-01-12T04:53:16.251Z,45.50
2023-01-12T04:56:10.369Z,45.60
2023-01-12T04:59:04.024Z,45.60
2023-01-12T05:01:57.149Z,45.60
2023-01-12T05:04:51.512Z,45.50
2023-01-12T05:07:59.036Z,45.60
2023-01-12T05:10:52.506Z,45.70
2023-01-12T05:13:46.081Z,45.70
2023-01-12T05:16:39.188Z,45.60
2023-01-12T05:19:32.176Z,45.70
2023-01-12T05:22:26.321Z,45.60
2023-01-12T05:25:20.155Z,45.60
2023-01-12T05:28:13.184Z,45.60
2023-01-12T05:31:08.147Z,45.60
2023-01-12T05:34:00.926Z,45.60
2023-01-12T05:36:53.940Z,45.50
2023-01-12T05:39:48.214Z,45.60
2023-01-12T05:42:58.559Z,45.50
2023-01-12T05:45:51.992Z,45.50
2023-01-12T05:48:45.197Z,45.40
2023-01-12T05:51:37.935Z,45.50
2023-01-12T05:54:31.507Z,45.50
2023-01-12T05:57:26.091Z,45.50
2023-01-12T06:00:20.034Z,45.60
2023-01-12T06:03:13.344Z,45.40
2023-01-12T06:06:06.494Z,45.50
2023-01-12T06:09:02.116Z,45.40
2023-01-12T06:12:12.344Z,45.50
2023-01-12T06:15:08.383Z,45.50
2023-01-12T06:18:01.819Z,45.50
2023-01-12T06:20:54.698Z,45.50
2023-01-12T06:23:48.350Z,45.50
2023-01-12T06:26:45.235Z,45.50
2023-01-12T06:29:37.957Z,45.60
2023-01-12T06:32:33.600Z,45.40
2023-01-12T06:35:27.046Z,45.70
2023-01-12T06:38:23.167Z,45.70
2023-01-12T06:41:29.773Z,45.70
2023-01-12T06:44:23.337Z,45.70
2023-01-12T06:47:16.057Z,45.70
2023-01-12T06:50:12.153Z,45.80
2023-01-12T06:53:06.975Z,45.80
2023-01-12T06:56:00.629Z,45.80
2023-01-12T06:58:54.205Z,45.80
2023-01-12T07:01:47.236Z,45.90
2023-01-12T07:04:39.797Z,45.90
2023-01-12T07:07:34.596Z,45.80
2023-01-12T07:10:28.255Z,46.00
2023-01-12T07:13:21.919Z,46.00
2023-01-12T07:16:14.927Z,46.00
2023-01-12T07:19:08.208Z,46.10
2023-01-12T07:22:00.973Z,46.10
2023-01-12T07:24:57.615Z,46.10
2023-01-12T07:27:51.807Z,46.00
2023-01-12T07:30:45.170Z,46.20
2023-01-12T07:33:38.567Z,46.30
2023-01-12T07:36:32.468Z,46.20
2023-01-12T07:39:26.001Z,46.30
2023-01-12T07:42:26.020Z,46.40
2023-01-12T07:45:19.006Z,46.40
2023-01-12T07:48:12.089Z,46.40
2023-01-12T07:51:05.603Z,46.30
2023-01-12T07:53:59.044Z,46.40
2023-01-12T07:56:51.754Z,46.50
2023-01-12T07:59:46.353Z,46.90
2023-01-12T08:02:39.341Z,46.80
2023-01-12T08:05:32.509Z,47.00
2023-01-12T08:08:26.263Z,47.00
2023-01-12T08:11:19.009Z,47.10
2023-01-12T08:14:25.007Z,47.10
2023-01-12T08:17:23.210Z,47.10
2023-01-12T08:20:19.491Z,47.60
2023-01-12T08:23:17.471Z,47.70
2023-01-12T08:26:14.250Z,47.70
2023-01-12T08:29:13.101Z,48.30
2023-01-12T08:35:05.405Z,48.90
2023-01-12T08:37:58.389Z,49.10
2023-01-12T08:41:08.514Z,49.10
2023-01-12T08:44:06.541Z,49.30
2023-01-12T08:47:00.139Z,49.30
2023-01-12T08:49:53.087Z,49.60
2023-01-12T08:52:47.776Z,49.50
2023-01-12T08:55:41.107Z,49.50
2023-01-12T08:58:34.137Z,49.50
2023-01-12T09:19:09.793Z,49.90
2023-01-12T09:22:03.409Z,49.90
2023-01-12T09:24:56.216Z,49.90
2023-01-12T09:27:49.247Z,49.90
2023-01-12T09:30:42.575Z,49.90
2023-01-12T09:33:37.322Z,49.90
2023-01-12T09:36:33.705Z,50.00
2023-01-12T09:39:28.837Z,49.90
2023-01-12T09:42:41.374Z,50.10
2023-01-12T09:45:51.733Z,50.20
2023-01-12T09:48:45.841Z,50.20
2023-01-12T09:51:48.893Z,50.30
2023-01-12T09:54:42.905Z,50.50
2023-01-12T09:57:53.522Z,50.40
2023-01-12T10:00:51.626Z,50.20
2023-01-12T10:03:45.091Z,50.00
2023-01-12T10:06:38.195Z,49.90
2023-01-12T10:09:34.619Z,49.80
2023-01-12T10:12:35.051Z,49.70
2023-01-12T10:15:41.613Z,49.70
2023-01-12T10:18:40.846Z,49.60
2023-01-12T10:21:33.921Z,49.60
2023-01-12T10:24:27.419Z,49.60
2023-01-12T10:27:21.630Z,49.60
2023-01-12T10:30:18.468Z,49.60
2023-01-12T10:33:12.785Z,49.60
2023-01-12T10:36:10.705Z,49.50
2023-01-12T10:39:05.759Z,49.50
2023-01-12T10:42:39.476Z,49.50
2023-01-12T10:45:32.219Z,49.50
2023-01-12T10:48:26.584Z,49.50
2023-01-12T10:51:26.787Z,49.50
2023-01-12T10:54:21.892Z,49.50
2023-01-12T10:57:20.185Z,49.50
2023-01-12T11:00:21.928Z,49.50
2023-01-12T11:03:33.792Z,49.50
2023-01-12T11:06:30.505Z,49.50
2023-01-12T11:09:25.878Z,49.50
2023-01-12T11:12:23.692Z,49.50
2023-01-12T11:15:19.983Z,49.50
2023-01-12T11:18:32.278Z,49.50
2023-01-12T11:21:31.642Z,49.50
2023-01-12T11:24:36.020Z,49.50
2023-01-12T11:27:35.477Z,49.50
2023-01-12T11:30:37.075Z,49.50
2023-01-12T11:33:36.027Z,49.40
2023-01-12T11:36:32.445Z,49.50
2023-01-12T11:39:26.813Z,49.50
2023-01-12T11:42:40.909Z,49.40
2023-01-12T11:45:46.209Z,49.40
2023-01-12T11:48:48.009Z,49.40
2023-01-12T11:51:41.979Z,49.40
2023-01-12T11:54:38.150Z,49.40
2023-01-12T11:57:58.505Z,49.40
2023-01-12T12:01:03.145Z,49.40
2023-01-12T12:04:04.043Z,49.30
2023-01-12T12:07:07.215Z,49.30
2023-01-12T12:10:16.245Z,49.20
2023-01-12T12:13:28.819Z,49.20
2023-01-12T12:16:31.088Z,49.20
2023-01-12T12:19:34.862Z,49.20
2023-01-12T12:22:42.118Z,49.20
2023-01-12T12:25:41.785Z,49.20
2023-01-12T12:29:02.830Z,49.20
2023-01-12T12:32:12.374Z,49.20
2023-01-12T12:35:18.811Z,49.20
2023-01-12T12:38:24.606Z,49.20
2023-01-12T12:41:45.050Z,49.30
2023-01-12T12:45:09.631Z,49.20
2023-01-12T12:48:12.092Z,49.20
2023-01-12T12:51:08.960Z,49.20
2023-01-12T12:54:06.629Z,49.20
2023-01-12T12:57:00.745Z,49.20
2023-01-12T12:59:59.619Z,49.20
2023-01-12T13:02:55.837Z,49.20
2023-01-12T13:06:10.322Z,49.20
2023-01-12T13:09:05.561Z,49.20
2023-01-12T13:12:19.932Z,49.80
2023-01-12T13:15:23.520Z,49.20
2023-01-12T13:18:41.966Z,49.20
2023-01-12T13:21:56.337Z,49.20
2023-01-12T13:24:49.626Z,51.10
2023-01-12T13:27:54.159Z,52.50
2023-01-12T13:30:51.878Z,53.50
2023-01-12T13:33:45.485Z,53.80
2023-01-12T13:36:38.242Z,53.80
2023-01-12T13:39:36.155Z,53.90
2023-01-12T13:42:46.899Z,55.00
2023-01-12T13:45:40.766Z,55.60
2023-01-12T13:48:36.810Z,56.00
2023-01-12T13:51:35.297Z,56.40
2023-01-12T13:54:29.327Z,56.20
2023-01-12T13:57:25.641Z,56.70
2023-01-12T14:00:22.269Z,56.90
2023-01-12T14:03:39.529Z,57.10
2023-01-12T14:06:42.480Z,57.30
2023-01-12T14:09:46.097Z,57.40
2023-01-12T14:13:05.496Z,57.70
2023-01-12T14:16:19.853Z,57.80
2023-01-12T14:19:28.552Z,57.90
2023-01-12T14:22:21.904Z,58.10
2023-01-12T14:25:17.214Z,58.10
2023-01-12T14:28:19.291Z,58.00
2023-01-12T14:31:21.006Z,58.10
2023-01-12T14:34:26.301Z,58.30
2023-01-12T14:37:27.995Z,58.10
2023-01-12T14:40:25.181Z,58.20
2023-01-12T14:43:37.439Z,58.10
2023-01-12T14:46:33.696Z,58.20
2023-01-12T14:49:29.327Z,58.10
2023-01-12T14:52:26.686Z,57.90
2023-01-12T14:55:26.875Z,58.00
2023-01-12T14:58:22.721Z,58.70
2023-01-12T15:01:31.875Z,58.00
2023-01-12T15:04:26.457Z,58.00
2023-01-12T15:07:21.110Z,57.90
2023-01-12T15:10:32.614Z,57.40
2023-01-12T15:13:29.328Z,57.60
2023-01-12T15:16:40.189Z,57.50
2023-01-12T15:19:50.789Z,57.40
2023-01-12T15:23:01.707Z,57.50
2023-01-12T15:25:55.079Z,57.50
2023-01-12T15:28:50.558Z,57.40
2023-01-12T15:31:43.972Z,57.30
2023-01-12T15:34:37.835Z,57.30
2023-01-12T15:37:31.414Z,57.20
2023-01-12T15:40:25.702Z,57.20
2023-01-12T15:43:19.028Z,57.10
2023-01-12T15:46:20.146Z,57.00
2023-01-12T15:49:14.454Z,57.00
2023-01-12T15:52:12.770Z,57.00
2023-01-12T15:55:07.836Z,57.00
2023-01-12T15:58:02.373Z,56.90
2023-01-12T16:00:55.881Z,56.90
2023-01-12T16:04:15.156Z,56.90
2023-01-12T16:07:03.318Z,56.80
2023-01-12T16:09:56.797Z,56.80
2023-01-12T16:12:49.539Z,57.40
2023-01-12T16:15:42.519Z,56.80
2023-01-12T16:18:36.027Z,56.70
2023-01-12T16:21:30.877Z,56.60
2023-01-12T16:24:26.570Z,56.60
2023-01-12T16:27:21.149Z,56.60
2023-01-12T16:30:16.672Z,56.60
2023-01-12T16:33:09.685Z,56.60
2023-01-12T16:36:02.807Z,56.70
2023-01-12T16:38:59.320Z,56.60
2023-01-12T16:41:53.159Z,56.70
2023-01-12T16:44:46.350Z,56.60
2023-01-12T16:47:39.638Z,56.70
2023-01-12T16:50:32.910Z,56.60
2023-01-12T16:53:27.450Z,56.60
2023-01-12T16:56:22.083Z,56.80
2023-01-12T16:59:15.598Z,56.70
2023-01-12T17:02:11.270Z,56.70
2023-01-12T17:05:04.811Z,57.30
2023-01-12T17:07:58.704Z,55.70
2023-01-12T17:10:55.459Z,54.30
2023-01-12T17:13:53.135Z,54.60
2023-01-12T17:16:47.129Z,54.80
2023-01-12T17:19:43.442Z,54.90
2023-01-12T17:22:36.682Z,55.00
2023-01-12T17:25:29.524Z,55.10
2023-01-12T17:28:22.426Z,55.10
2023-01-12T17:31:19.116Z,55.10
2023-01-12T17:34:15.060Z,55.80
2023-01-12T17:37:09.041Z,55.20
2023-01-12T17:40:02.894Z,55.30
2023-01-12T17:43:07.784Z,55.10
2023-01-12T17:46:03.595Z,55.40
2023-01-12T17:49:00.604Z,55.20
2023-01-12T17:51:53.716Z,55.10
2023-01-12T17:54:46.675Z,55.10
2023-01-12T17:57:39.675Z,55.20
2023-01-12T18:00:33.626Z,55.20
2023-01-12T18:03:26.933Z,55.20
2023-01-12T18:06:28.876Z,55.20
2023-01-12T18:09:21.962Z,55.20
2023-01-12T18:12:16.300Z,55.20
2023-01-12T18:15:10.935Z,55.10
2023-01-12T18:18:04.532Z,55.10
2023-01-12T18:21:04.685Z,55.10
2023-01-12T18:23:59.279Z,55.10
2023-01-12T18:26:52.690Z,55.10
2023-01-12T18:29:45.629Z,55.00
2023-01-12T18:32:39.594Z,55.00
2023-01-12T18:35:36.189Z,55.10
2023-01-12T18:38:29.381Z,55.00
2023-01-12T18:41:42.266Z,55.00
2023-01-12T18:44:36.636Z,55.00
2023-01-12T18:47:46.713Z,54.90
2023-01-12T18:50:57.299Z,55.00
2023-01-12T18:53:50.578Z,55.00
2023-01-12T18:56:47.600Z,54.90
2023-01-12T18:59:41.894Z,55.50
2023-01-12T19:02:35.792Z,54.90
2023-01-12T19:05:35.138Z,54.80
2023-01-12T19:08:46.914Z,55.10
2023-01-12T19:11:40.737Z,55.30
2023-01-12T19:14:52.894Z,55.50
2023-01-12T19:17:45.601Z,55.50
2023-01-12T19:20:40.244Z,55.60
2023-01-12T19:23:50.658Z,55.70
2023-01-12T19:27:01.201Z,55.80
2023-01-12T19:29:55.920Z,55.90
2023-01-12T19:32:48.752Z,56.00
2023-01-12T19:35:42.416Z,56.30
2023-01-12T19:38:36.833Z,56.50
2023-01-12T19:41:47.252Z,56.60
2023-01-12T19:44:41.098Z,56.60
2023-01-12T19:47:36.904Z,56.70
2023-01-12T19:50:29.788Z,56.60
2023-01-12T19:53:25.878Z,56.80
2023-01-12T19:56:19.114Z,56.90
2023-01-12T19:59:13.516Z,56.90
2023-01-12T20:02:06.755Z,56.80
2023-01-12T20:05:01.214Z,57.00
2023-01-12T20:07:55.923Z,57.70
2023-01-12T20:10:54.463Z,57.00
2023-01-12T20:13:48.321Z,57.00
2023-01-12T20:16:41.479Z,57.20
2023-01-12T20:19:35.235Z,57.10
2023-01-12T20:22:30.209Z,57.20
2023-01-12T20:25:27.929Z,57.30
2023-01-12T20:28:21.913Z,57.20
2023-01-12T20:31:16.921Z,57.20
2023-01-12T20:34:10.238Z,57.40
2023-01-12T20:37:03.903Z,57.40
2023-01-12T20:39:58.293Z,57.40
2023-01-12T20:42:52.072Z,57.50
2023-01-12T20:45:46.785Z,57.40
2023-01-12T20:48:41.481Z,57.50
2023-01-12T20:51:34.918Z,57.60
2023-01-12T20:54:27.936Z,57.60
2023-01-12T20:57:22.525Z,57.50
2023-01-12T21:00:15.810Z,57.50
2023-01-12T21:03:08.915Z,57.50
2023-01-12T21:06:01.767Z,57.60
2023-01-12T21:08:54.916Z,57.50
2023-01-12T21:11:49.717Z,57.50
2023-01-12T21:14:43.938Z,57.50
2023-01-12T21:17:39.128Z,58.00
2023-01-12T21:20:32.588Z,57.30
2023-01-12T21:23:26.738Z,57.10
2023-01-12T21:26:19.771Z,57.60
2023-01-12T21:29:13.339Z,57.00
2023-01-12T21:32:08.275Z,57.30
2023-01-12T21:35:01.996Z,57.10
2023-01-12T21:37:54.790Z,57.30
2023-01-12T21:40:47.832Z,56.80
2023-01-12T21:43:40.764Z,56.90
2023-01-12T21:46:33.895Z,56.90
2023-01-12T21:49:28.216Z,56.70
2023-01-12T21:52:21.966Z,56.80
2023-01-12T21:55:14.935Z,56.80
2023-01-12T21:58:07.797Z,56.80
2023-01-12T22:01:01.188Z,56.80
2023-01-12T22:03:56.921Z,56.70
2023-01-12T22:06:52.874Z,56.90
2023-01-12T22:09:45.788Z,56.80
2023-01-12T22:12:38.552Z,56.80
2023-01-12T22:15:32.077Z,56.80
2023-01-12T22:18:24.994Z,56.70
2023-01-12T22:21:19.334Z,56.70
2023-01-12T22:24:14.502Z,57.00
2023-01-12T22:27:07.957Z,57.50
2023-01-12T22:30:01.469Z,57.30
2023-01-12T22:32:56.554Z,57.20
2023-01-12T22:35:49.810Z,57.20
2023-01-12T22:38:42.933Z,57.00
2023-01-12T22:41:38.597Z,56.80
2023-01-12T22:44:32.300Z,57.10
2023-01-12T22:47:25.758Z,56.80
2023-01-12T22:50:18.690Z,56.70
2023-01-12T22:53:13.229Z,56.60
2023-01-12T22:56:07.806Z,57.40
2023-01-12T22:59:02.289Z,57.00
2023-01-12T23:02:16.187Z,56.60
2023-01-12T23:05:10.127Z,56.20
2023-01-12T23:08:03.715Z,56.00
2023-01-12T23:11:04.030Z,55.80
2023-01-12T23:13:56.855Z,54.40
2023-01-12T23:16:51.391Z,55.20
2023-01-12T23:19:45.110Z,55.40
2023-01-12T23:22:37.835Z,55.20
2023-01-12T23:25:32.480Z,55.00
2023-01-12T23:28:25.823Z,54.90
2023-01-12T23:31:22.114Z,54.50
2023-01-12T23:34:16.502Z,54.50
2023-01-12T23:37:09.897Z,54.40
2023-01-12T23:40:03.345Z,54.20
2023-01-12T23:42:56.721Z,54.10
2023-01-12T23:45:49.782Z,54.10
2023-01-12T23:48:42.781Z,54.00
2023-01-12T23:51:37.279Z,53.70
2023-01-12T23:54:31.181Z,53.80
2023-01-12T23:57:25.281Z,53.60
